createdAt,value
2022-12-29T00:02:18.521Z,13.00
2022-12-29T00:04:46.575Z,12.90
2022-12-29T00:07:14.410Z,12.90
2022-12-29T00:09:42.355Z,12.90
2022-12-29T00:12:10.199Z,13.00
2022-12-29T00:14:56.721Z,13.00
2022-12-29T00:17:26.159Z,13.00
2022-12-29T00:20:12.724Z,12.90
2022-12-29T00:23:00.197Z,12.90
2022-12-29T00:25:47.036Z,12.90
2022-12-29T00:28:33.318Z,12.90
2022-12-29T00:31:20.848Z,12.90
2022-12-29T00:34:08.849Z,12.90
2022-12-29T00:36:39.964Z,12.90
2022-12-29T00:39:32.735Z,12.90
2022-12-29T00:42:40.378Z,12.90
2022-12-29T00:45:08.816Z,12.90
2022-12-29T00:47:36.590Z,12.90
2022-12-29T00:50:06.735Z,12.90
2022-12-29T00:52:34.920Z,12.90
2022-12-29T00:55:02.866Z,12.90
2022-12-29T00:57:30.709Z,12.90
2022-12-29T00:59:58.516Z,13.00
2022-12-29T01:02:26.462Z,12.90
2022-12-29T01:04:54.503Z,12.90
2022-12-29T01:07:23.689Z,12.90
2022-12-29T01:10:10.547Z,12.90
2022-12-29T01:12:46.181Z,12.90
2022-12-29T01:15:16.343Z,12.90
2022-12-29T01:17:44.454Z,12.90
2022-12-29T01:20:13.471Z,12.90
2022-12-29T01:22:44.955Z,12.90
2022-12-29T01:25:12.824Z,12.90
2022-12-29T01:27:40.606Z,12.90
2022-12-29T01:30:09.702Z,12.90
2022-12-29T01:32:37.542Z,12.90
2022-12-29T01:35:06.201Z,12.90
2022-12-29T01:37:36.139Z,12.90
2022-12-29T01:40:06.641Z,12.90
2022-12-29T01:42:35.135Z,12.90
2022-12-29T01:45:04.661Z,12.90
2022-12-29T01:47:37.266Z,12.90
2022-12-29T01:50:10.099Z,12.90
2022-12-29T01:52:43.962Z,12.90
2022-12-29T01:55:14.143Z,12.80
2022-12-29T01:57:45.529Z,12.80
2022-12-29T02:00:15.475Z,12.70
2022-12-29T02:02:47.502Z,12.70
2022-12-29T02:05:21.332Z,12.70
2022-12-29T02:07:51.437Z,12.70
2022-12-29T02:10:21.918Z,12.60
2022-12-29T02:12:49.820Z,12.60
2022-12-29T02:15:19.020Z,12.50
2022-12-29T02:18:04.638Z,12.50
2022-12-29T02:20:51.857Z,12.50
2022-12-29T02:23:55.317Z,12.40
2022-12-29T02:26:46.309Z,12.40
2022-12-29T02:29:44.745Z,12.40
2022-12-29T02:32:22.169Z,12.40
2022-12-29T02:34:59.879Z,12.40
2022-12-29T02:37:40.452Z,12.40
2022-12-29T02:40:18.718Z,12.40
2022-12-29T02:42:52.113Z,12.40
2022-12-29T02:45:28.108Z,12.30
2022-12-29T02:48:05.669Z,12.30
2022-12-29T02:50:38.079Z,12.30
2022-12-29T02:53:10.131Z,12.30
2022-12-29T02:55:38.268Z,12.30
2022-12-29T02:58:17.975Z,12.30
2022-12-29T03:01:00.298Z,12.30
2022-12-29T03:03:45.058Z,12.30
2022-12-29T03:06:32.108Z,12.20
2022-12-29T03:09:18.903Z,12.20
2022-12-29T03:12:10.918Z,12.20
2022-12-29T03:15:10.147Z,12.20
2022-12-29T03:17:47.063Z,12.20
2022-12-29T03:20:21.917Z,12.20
2022-12-29T03:22:56.668Z,12.20
2022-12-29T03:25:31.057Z,12.10
2022-12-29T03:28:03.565Z,12.00
2022-12-29T03:30:37.209Z,12.00
2022-12-29T03:33:10.299Z,12.00
2022-12-29T03:35:44.217Z,12.00
2022-12-29T03:38:18.386Z,12.00
2022-12-29T03:40:51.574Z,12.00
2022-12-29T03:43:20.447Z,12.00
2022-12-29T03:45:50.137Z,12.00
2022-12-29T03:48:19.409Z,12.10
2022-12-29T03:50:49.949Z,12.10
2022-12-29T03:53:19.006Z,12.10
2022-12-29T03:55:46.928Z,12.10
2022-12-29T03:58:15.117Z,12.10
2022-12-29T04:01:07.746Z,12.00
2022-12-29T04:03:39.210Z,12.10
2022-12-29T04:06:09.351Z,12.10
2022-12-29T04:08:44.631Z,12.10
2022-12-29T04:11:13.105Z,12.10
2022-12-29T04:13:42.199Z,12.10
2022-12-29T04:16:12.981Z,12.00
2022-12-29T04:18:41.058Z,12.00
2022-12-29T04:21:10.891Z,12.00
2022-12-29T04:23:41.873Z,12.00
2022-12-29T04:26:11.527Z,12.00
2022-12-29T04:29:02.221Z,11.90
2022-12-29T04:31:41.299Z,11.90
2022-12-29T04:34:09.600Z,11.90
2022-12-29T04:36:40.920Z,11.90
2022-12-29T04:39:09.321Z,11.90
2022-12-29T04:41:39.980Z,11.80
2022-12-29T04:44:11.319Z,11.80
2022-12-29T04:46:57.157Z,11.80
2022-12-29T04:49:43.931Z,11.80
2022-12-29T04:52:32.452Z,11.80
2022-12-29T04:55:00.658Z,11.80
2022-12-29T04:57:28.981Z,11.80
2022-12-29T05:00:00.253Z,11.80
2022-12-29T05:02:28.603Z,11.70
2022-12-29T05:04:57.992Z,11.70
2022-12-29T05:07:27.280Z,11.80
2022-12-29T05:09:58.289Z,11.80
2022-12-29T05:12:26.620Z,11.80
2022-12-29T05:14:59.743Z,11.80
2022-12-29T05:17:27.961Z,11.80
2022-12-29T05:19:56.001Z,11.70
2022-12-29T05:22:24.481Z,11.70
2022-12-29T05:24:52.710Z,11.80
2022-12-29T05:27:23.616Z,11.70
2022-12-29T05:30:23.831Z,11.80
2022-12-29T05:32:52.122Z,11.70
2022-12-29T05:35:20.420Z,11.70
2022-12-29T05:37:49.031Z,11.70
2022-12-29T05:40:17.140Z,11.60
2022-12-29T05:42:47.358Z,11.60
2022-12-29T05:45:34.718Z,11.60
2022-12-29T05:48:22.998Z,11.50
2022-12-29T05:51:11.980Z,11.40
2022-12-29T05:53:51.377Z,11.40
2022-12-29T05:56:19.685Z,11.40
2022-12-29T05:58:56.187Z,11.50
2022-12-29T06:01:24.915Z,11.50
2022-12-29T06:03:53.282Z,11.50
2022-12-29T06:06:22.392Z,11.50
2022-12-29T06:08:50.820Z,11.40
2022-12-29T06:11:20.550Z,11.40
2022-12-29T06:13:55.619Z,11.40
2022-12-29T06:16:25.017Z,11.40
2022-12-29T06:18:56.708Z,11.40
2022-12-29T06:21:24.979Z,11.40
2022-12-29T06:23:52.949Z,11.40
2022-12-29T06:26:22.230Z,11.40
2022-12-29T06:28:50.378Z,11.40
2022-12-29T06:31:20.018Z,11.40
2022-12-29T06:33:50.254Z,11.40
2022-12-29T06:36:19.014Z,11.40
2022-12-29T06:38:47.156Z,11.40
2022-12-29T06:41:15.273Z,11.40
2022-12-29T06:44:09.418Z,11.40
2022-12-29T06:46:52.519Z,11.30
2022-12-29T06:49:20.611Z,11.40
2022-12-29T06:51:48.542Z,11.40
2022-12-29T06:54:16.558Z,11.40
2022-12-29T06:56:45.329Z,11.40
2022-12-29T06:59:13.349Z,11.30
2022-12-29T07:01:41.391Z,11.30
2022-12-29T07:04:10.889Z,11.30
2022-12-29T07:06:38.802Z,11.30
2022-12-29T07:09:06.849Z,11.30
2022-12-29T07:11:35.749Z,11.30
2022-12-29T07:14:04.751Z,11.30
2022-12-29T07:16:34.027Z,11.30
2022-12-29T07:19:02.208Z,11.30
2022-12-29T07:21:31.850Z,11.30
2022-12-29T07:23:59.891Z,11.20
2022-12-29T07:26:32.912Z,11.30
2022-12-29T07:29:04.912Z,11.30
2022-12-29T07:31:33.112Z,11.40
2022-12-29T07:34:01.229Z,11.40
2022-12-29T07:36:34.365Z,11.40
2022-12-29T07:39:02.830Z,11.50
2022-12-29T07:41:31.180Z,11.50
2022-12-29T07:44:02.942Z,11.50
2022-12-29T07:46:57.419Z,11.60
2022-12-29T07:49:26.013Z,11.60
2022-12-29T07:51:55.916Z,11.60
2022-12-29T07:54:24.557Z,11.70
2022-12-29T07:56:52.783Z,11.70
2022-12-29T07:59:21.149Z,11.80
2022-12-29T08:01:49.170Z,11.80
2022-12-29T08:04:17.412Z,11.90
2022-12-29T08:06:46.763Z,11.90
2022-12-29T08:09:22.092Z,11.90
2022-12-29T08:11:51.254Z,12.00
2022-12-29T08:14:20.153Z,12.00
2022-12-29T08:16:48.237Z,12.00
2022-12-29T08:19:16.446Z,12.00
2022-12-29T08:21:44.613Z,12.00
2022-12-29T08:24:12.796Z,12.00
2022-12-29T08:26:42.416Z,12.10
2022-12-29T08:29:25.357Z,12.10
2022-12-29T08:31:53.612Z,12.20
2022-12-29T08:34:21.619Z,12.20
2022-12-29T08:36:50.008Z,12.20
2022-12-29T08:39:18.337Z,12.30
2022-12-29T08:41:47.872Z,12.40
2022-12-29T08:44:15.809Z,12.40
2022-12-29T08:46:44.079Z,12.40
2022-12-29T08:49:12.130Z,12.50
2022-12-29T08:51:41.018Z,12.50
2022-12-29T08:54:09.121Z,12.60
2022-12-29T08:56:37.202Z,12.70
2022-12-29T08:59:07.319Z,12.70
2022-12-29T09:01:37.688Z,12.80
2022-12-29T09:04:15.631Z,12.90
2022-12-29T09:06:45.391Z,12.90
2022-12-29T09:09:13.983Z,13.00
2022-12-29T09:11:42.538Z,13.10
2022-12-29T09:14:12.377Z,13.20
2022-12-29T09:17:00.085Z,13.20
2022-12-29T09:19:27.709Z,13.20
2022-12-29T09:21:55.686Z,13.30
2022-12-29T09:24:23.858Z,13.40
2022-12-29T09:26:52.035Z,13.50
2022-12-29T09:29:21.786Z,13.60
2022-12-29T09:31:49.925Z,13.60
2022-12-29T09:34:18.106Z,13.60
2022-12-29T09:36:46.087Z,13.70
2022-12-29T09:39:14.657Z,13.70
2022-12-29T09:41:50.351Z,13.70
2022-12-29T09:44:27.732Z,13.80
2022-12-29T09:46:58.088Z,13.90
2022-12-29T09:49:30.249Z,13.90
2022-12-29T09:52:05.676Z,14.00
2022-12-29T09:54:54.927Z,14.10
2022-12-29T09:57:31.142Z,14.20
2022-12-29T10:00:06.150Z,14.20
2022-12-29T10:02:44.307Z,14.30
2022-12-29T10:05:28.827Z,14.40
2022-12-29T10:08:17.765Z,14.40
2022-12-29T10:10:55.780Z,14.50
2022-12-29T10:13:35.928Z,14.50
2022-12-29T10:16:13.338Z,14.60
2022-12-29T10:19:06.976Z,14.60
2022-12-29T10:22:01.115Z,14.60
2022-12-29T10:24:32.540Z,14.70
2022-12-29T10:27:01.506Z,14.80
2022-12-29T10:29:36.347Z,14.80
2022-12-29T10:32:11.872Z,14.90
2022-12-29T10:34:44.039Z,14.90
2022-12-29T10:37:27.488Z,15.00
2022-12-29T10:39:59.667Z,15.10
2022-12-29T10:42:29.728Z,15.10
2022-12-29T10:45:00.164Z,15.20
2022-12-29T10:47:35.872Z,15.30
2022-12-29T10:50:04.719Z,15.30
2022-12-29T10:52:35.149Z,15.40
2022-12-29T10:55:09.688Z,15.50
2022-12-29T10:57:42.103Z,15.50
2022-12-29T11:00:14.507Z,15.60
2022-12-29T11:03:04.054Z,15.70
2022-12-29T11:05:37.731Z,15.70
2022-12-29T11:08:12.280Z,15.80
2022-12-29T11:10:42.315Z,15.90
2022-12-29T11:13:16.248Z,16.00
2022-12-29T11:15:46.185Z,16.10
2022-12-29T11:18:24.353Z,16.10
2022-12-29T11:20:54.765Z,16.20
2022-12-29T11:23:26.708Z,16.30
2022-12-29T11:26:22.677Z,16.40
2022-12-29T11:29:22.338Z,16.50
2022-12-29T11:31:52.028Z,16.50
2022-12-29T11:34:24.845Z,16.60
2022-12-29T11:36:54.952Z,16.70
2022-12-29T11:39:35.544Z,16.80
2022-12-29T11:42:05.194Z,16.90
2022-12-29T11:44:49.565Z,16.90
2022-12-29T11:47:28.358Z,17.00
2022-12-29T11:50:00.783Z,17.10
2022-12-29T11:52:34.439Z,17.10
2022-12-29T11:55:04.640Z,17.20
2022-12-29T11:57:35.806Z,17.30
2022-12-29T12:00:15.691Z,17.30
2022-12-29T12:02:51.411Z,17.30
2022-12-29T12:05:29.574Z,17.40
2022-12-29T12:08:03.718Z,17.40
2022-12-29T12:10:39.798Z,17.50
2022-12-29T12:13:19.918Z,17.60
2022-12-29T12:15:56.725Z,17.80
2022-12-29T12:18:39.091Z,17.70
2022-12-29T12:21:17.197Z,17.80
2022-12-29T12:24:19.574Z,17.90
2022-12-29T12:26:58.418Z,18.00
2022-12-29T12:29:33.037Z,18.00
2022-12-29T12:32:06.927Z,18.10
2022-12-29T12:34:39.636Z,18.20
2022-12-29T12:37:28.963Z,18.20
2022-12-29T12:40:22.977Z,18.40
2022-12-29T12:42:59.779Z,18.50
2022-12-29T12:45:44.340Z,18.50
2022-12-29T12:48:29.638Z,18.40
2022-12-29T12:51:04.960Z,18.60
2022-12-29T12:53:50.013Z,18.60
2022-12-29T12:56:50.491Z,18.30
2022-12-29T12:59:34.675Z,18.50
2022-12-29T13:02:17.440Z,18.40
2022-12-29T13:05:04.624Z,18.30
2022-12-29T13:07:38.011Z,18.40
2022-12-29T13:10:26.502Z,18.50
2022-12-29T13:13:06.262Z,18.50
2022-12-29T13:15:48.605Z,18.60
2022-12-29T13:18:27.171Z,18.50
2022-12-29T13:21:01.729Z,18.50
2022-12-29T13:23:37.686Z,18.50
2022-12-29T13:26:14.973Z,18.50
2022-12-29T13:28:54.187Z,18.30
2022-12-29T13:31:30.132Z,18.20
2022-12-29T13:34:04.420Z,18.00
2022-12-29T13:36:38.770Z,18.00
2022-12-29T13:39:20.552Z,17.90
2022-12-29T13:41:53.380Z,17.90
2022-12-29T13:44:26.367Z,18.00
2022-12-29T13:46:55.571Z,18.10
2022-12-29T13:49:27.336Z,18.10
2022-12-29T13:51:58.089Z,18.00
2022-12-29T13:54:38.059Z,17.90
2022-12-29T13:57:14.312Z,17.90
2022-12-29T13:59:52.381Z,17.80
2022-12-29T14:02:29.550Z,17.80
2022-12-29T14:05:00.422Z,17.80
2022-12-29T14:07:29.592Z,17.80
2022-12-29T14:09:58.651Z,17.80
2022-12-29T14:12:39.019Z,17.80
2022-12-29T14:15:23.668Z,17.70
2022-12-29T14:18:07.511Z,17.60
2022-12-29T14:20:36.012Z,17.60
2022-12-29T14:23:19.158Z,17.60
2022-12-29T14:26:10.574Z,17.60
2022-12-29T14:28:41.524Z,17.50
2022-12-29T14:31:42.131Z,17.50
2022-12-29T14:34:30.224Z,17.50
2022-12-29T14:36:59.894Z,17.50
2022-12-29T14:39:35.567Z,17.40
2022-12-29T14:42:06.724Z,17.40
2022-12-29T14:44:47.315Z,17.40
2022-12-29T14:47:21.188Z,17.40
2022-12-29T14:49:49.448Z,17.30
2022-12-29T14:52:21.431Z,17.30
2022-12-29T14:54:55.343Z,17.30
2022-12-29T14:57:36.686Z,17.20
2022-12-29T15:00:16.437Z,17.20
2022-12-29T15:02:48.874Z,17.20
2022-12-29T15:05:30.875Z,17.20
2022-12-29T15:08:00.226Z,17.20
2022-12-29T15:10:33.771Z,17.20
2022-12-29T15:13:06.215Z,17.10
2022-12-29T15:15:40.099Z,17.10
2022-12-29T15:18:21.519Z,17.00
2022-12-29T15:20:54.447Z,16.90
2022-12-29T15:23:22.901Z,16.80
2022-12-29T15:25:55.510Z,16.70
2022-12-29T15:28:24.482Z,16.60
2022-12-29T15:30:55.835Z,16.50
2022-12-29T15:33:25.364Z,16.50
2022-12-29T15:35:55.056Z,16.40
2022-12-29T15:38:32.252Z,16.30
2022-12-29T15:41:05.212Z,16.20
2022-12-29T15:43:47.590Z,16.10
2022-12-29T15:46:17.704Z,16.00
2022-12-29T15:48:45.766Z,15.90
2022-12-29T15:51:21.526Z,15.90
2022-12-29T15:54:04.677Z,15.80
2022-12-29T15:56:34.167Z,15.70
2022-12-29T15:59:02.578Z,15.70
2022-12-29T16:01:34.461Z,15.70
2022-12-29T16:04:10.435Z,15.60
2022-12-29T16:06:39.567Z,15.50
2022-12-29T16:09:15.990Z,15.40
2022-12-29T16:11:48.397Z,15.30
2022-12-29T16:14:19.889Z,15.30
2022-12-29T16:16:51.829Z,15.30
2022-12-29T16:19:24.638Z,15.30
2022-12-29T16:21:52.856Z,15.20
2022-12-29T16:24:23.077Z,15.10
2022-12-29T16:26:53.549Z,15.10
2022-12-29T16:29:23.117Z,15.00
2022-12-29T16:32:01.680Z,15.00
2022-12-29T16:34:32.990Z,15.00
2022-12-29T16:37:02.870Z,15.00
2022-12-29T16:39:34.139Z,14.90
2022-12-29T16:42:02.931Z,14.90
2022-12-29T16:44:32.154Z,14.90
2022-12-29T16:47:22.010Z,14.80
2022-12-29T16:49:55.309Z,14.70
2022-12-29T16:52:26.958Z,14.70
2022-12-29T16:54:57.701Z,14.70
2022-12-29T16:57:29.192Z,14.70
2022-12-29T17:00:01.058Z,14.70
2022-12-29T17:02:33.791Z,14.60
2022-12-29T17:05:01.907Z,14.60
2022-12-29T17:07:29.998Z,14.60
2022-12-29T17:09:58.038Z,14.60
2022-12-29T17:12:28.945Z,14.60
2022-12-29T17:14:59.284Z,14.60
2022-12-29T17:17:34.097Z,14.50
2022-12-29T17:20:05.453Z,14.50
2022-12-29T17:22:34.347Z,14.50
2022-12-29T17:25:03.935Z,14.50
2022-12-29T17:27:36.347Z,14.40
2022-12-29T17:30:10.681Z,14.40
2022-12-29T17:32:40.648Z,14.20
2022-12-29T17:35:14.777Z,14.10
2022-12-29T17:37:43.065Z,14.10
2022-12-29T17:40:16.885Z,14.10
2022-12-29T17:42:46.629Z,14.00
2022-12-29T17:45:17.112Z,14.00
2022-12-29T17:47:47.046Z,13.90
2022-12-29T17:50:16.425Z,13.90
2022-12-29T17:52:52.986Z,13.90
2022-12-29T17:55:21.402Z,13.90
2022-12-29T17:57:49.437Z,13.90
2022-12-29T18:00:19.710Z,13.90
2022-12-29T18:02:49.806Z,13.90
2022-12-29T18:05:21.900Z,13.80
2022-12-29T18:07:51.524Z,13.80
2022-12-29T18:10:20.049Z,13.80
2022-12-29T18:12:50.043Z,13.70
2022-12-29T18:15:21.650Z,13.70
2022-12-29T18:17:56.043Z,13.70
2022-12-29T18:20:24.509Z,13.60
2022-12-29T18:22:52.955Z,13.60
2022-12-29T18:25:25.857Z,13.60
2022-12-29T18:27:54.435Z,13.50
2022-12-29T18:30:22.858Z,13.50
2022-12-29T18:32:52.976Z,13.50
2022-12-29T18:35:27.474Z,13.60
2022-12-29T18:37:56.047Z,13.50
2022-12-29T18:40:24.468Z,13.60
2022-12-29T18:42:53.074Z,13.60
2022-12-29T18:45:23.456Z,13.70
2022-12-29T18:47:53.497Z,13.60
2022-12-29T18:50:22.215Z,13.60
2022-12-29T18:52:50.887Z,13.60
2022-12-29T18:55:21.949Z,13.60
2022-12-29T18:57:50.920Z,13.60
2022-12-29T19:00:21.366Z,13.60
2022-12-29T19:02:50.759Z,13.60
2022-12-29T19:05:26.603Z,13.60
2022-12-29T19:07:55.710Z,13.60
2022-12-29T19:10:26.439Z,13.60
2022-12-29T19:12:55.105Z,13.60
2022-12-29T19:15:25.881Z,13.60
2022-12-29T19:18:41.183Z,13.60
2022-12-29T19:20:47.519Z,13.60
2022-12-29T19:23:17.754Z,13.60
2022-12-29T19:25:46.909Z,13.60
2022-12-29T19:28:18.932Z,13.60
2022-12-29T19:30:51.864Z,13.60
2022-12-29T19:33:22.654Z,13.50
2022-12-29T19:35:52.900Z,13.50
2022-12-29T19:38:21.449Z,13.50
2022-12-29T19:40:51.264Z,13.50
2022-12-29T19:43:20.282Z,13.50
2022-12-29T19:45:48.618Z,13.50
2022-12-29T19:48:21.732Z,13.40
2022-12-29T19:50:51.659Z,13.40
2022-12-29T19:53:21.272Z,13.30
2022-12-29T19:56:12.426Z,13.30
2022-12-29T19:58:45.219Z,13.30
2022-12-29T20:01:16.849Z,13.20
2022-12-29T20:03:45.616Z,13.30
2022-12-29T20:06:16.076Z,13.20
2022-12-29T20:08:45.234Z,13.20
2022-12-29T20:11:14.933Z,13.10
2022-12-29T20:13:44.420Z,13.10
2022-12-29T20:16:15.100Z,13.00
2022-12-29T20:18:44.748Z,13.00
2022-12-29T20:21:16.342Z,13.00
2022-12-29T20:23:45.448Z,12.90
2022-12-29T20:26:19.352Z,12.90
2022-12-29T20:28:48.018Z,12.90
2022-12-29T20:31:20.359Z,12.80
2022-12-29T20:33:49.311Z,12.70
2022-12-29T20:36:22.387Z,12.70
2022-12-29T20:38:52.270Z,12.70
2022-12-29T20:41:20.792Z,12.70
2022-12-29T20:43:49.420Z,12.70
2022-12-29T20:46:21.396Z,12.70
2022-12-29T20:48:51.348Z,12.70
2022-12-29T20:51:21.861Z,12.70
2022-12-29T20:53:50.592Z,12.70
2022-12-29T20:56:21.212Z,12.70
2022-12-29T20:59:25.935Z,12.60
2022-12-29T21:01:39.437Z,12.60
2022-12-29T21:04:07.645Z,12.60
2022-12-29T21:06:38.148Z,12.60
2022-12-29T21:09:07.151Z,12.50
2022-12-29T21:11:35.413Z,12.40
2022-12-29T21:14:04.113Z,12.40
2022-12-29T21:16:32.760Z,12.40
2022-12-29T21:19:01.228Z,12.40
2022-12-29T21:21:29.549Z,12.30
2022-12-29T21:24:05.856Z,12.20
2022-12-29T21:26:34.507Z,12.10
2022-12-29T21:31:48.528Z,12.10
2022-12-29T21:34:16.910Z,12.10
2022-12-29T21:36:45.435Z,12.20
2022-12-29T21:39:16.944Z,12.10
2022-12-29T21:41:45.277Z,12.10
2022-12-29T21:44:32.361Z,12.10
2022-12-29T21:47:01.328Z,12.10
2022-12-29T21:49:29.855Z,12.10
2022-12-29T21:51:58.178Z,12.00
2022-12-29T21:54:47.502Z,12.00
2022-12-29T21:57:37.610Z,11.90
2022-12-29T22:00:26.064Z,11.80
2022-12-29T22:03:20.056Z,11.80
2022-12-29T22:06:09.166Z,11.90
2022-12-29T22:08:56.271Z,11.80
2022-12-29T22:11:43.930Z,12.00
2022-12-29T22:14:13.487Z,12.00
2022-12-29T22:16:41.457Z,12.00
2022-12-29T22:19:10.981Z,12.00
2022-12-29T22:21:51.674Z,12.10
2022-12-29T22:24:19.760Z,12.10
2022-12-29T22:26:48.905Z,12.00
2022-12-29T22:29:16.893Z,12.10
2022-12-29T22:31:44.865Z,12.10
2022-12-29T22:34:14.343Z,12.10
2022-12-29T22:36:42.261Z,12.10
2022-12-29T22:39:10.780Z,12.10
2022-12-29T22:41:38.718Z,12.10
2022-12-29T22:44:08.405Z,12.10
2022-12-29T22:46:36.403Z,12.10
2022-12-29T22:49:04.361Z,12.10
2022-12-29T22:51:32.257Z,12.00
2022-12-29T22:54:00.255Z,12.00
2022-12-29T22:56:28.276Z,12.00
2022-12-29T22:58:56.440Z,11.90
2022-12-29T23:01:25.929Z,12.00
2022-12-29T23:04:01.062Z,12.00
2022-12-29T23:06:42.154Z,12.00
2022-12-29T23:09:15.724Z,12.00
2022-12-29T23:11:43.994Z,12.00
2022-12-29T23:14:12.080Z,12.00
2022-12-29T23:16:41.718Z,12.00
2022-12-29T23:19:10.457Z,12.00
2022-12-29T23:21:38.583Z,11.90
2022-12-29T23:24:07.387Z,11.90
2022-12-29T23:26:37.933Z,11.90
2022-12-29T23:29:08.364Z,11.90
2022-12-29T23:31:37.174Z,11.90
2022-12-29T23:34:08.217Z,11.90
2022-12-29T23:36:36.693Z,11.90
2022-12-29T23:39:05.147Z,11.90
2022-12-29T23:41:33.166Z,11.90
2022-12-29T23:44:01.043Z,12.00
2022-12-29T23:46:31.449Z,12.00
2022-12-29T23:49:00.276Z,11.90
2022-12-29T23:51:29.776Z,11.90
2022-12-29T23:53:57.861Z,11.90
2022-12-29T23:56:25.844Z,11.90
2022-12-29T23:58:53.903Z,12.00
